createdAt,value
2022-12-29T00:00:45.531Z,57.87
2022-12-29T00:03:43.352Z,59.05
2022-12-29T00:06:41.272Z,60.29
2022-12-29T00:09:38.698Z,64.30
2022-12-29T00:12:50.215Z,69.73
2022-12-29T00:15:47.938Z,70.05
2022-12-29T00:18:45.392Z,67.37
2022-12-29T00:22:01.025Z,64.67
2022-12-29T00:25:16.468Z,63.19
2022-12-29T00:28:38.734Z,64.93
2022-12-29T00:31:54.145Z,64.35
2022-12-29T00:35:09.334Z,63.98
2022-12-29T00:38:24.985Z,63.42
2022-12-29T00:41:39.474Z,63.12
2022-12-29T00:44:36.920Z,63.91
2022-12-29T00:47:34.523Z,64.16
2022-12-29T00:50:31.954Z,62.51
2022-12-29T00:53:29.664Z,62.70
2022-12-29T00:56:27.116Z,64.04
2022-12-29T00:59:25.451Z,63.83
2022-12-29T01:02:23.298Z,62.03
2022-12-29T01:05:20.882Z,62.23
2022-12-29T01:08:18.526Z,61.60
2022-12-29T01:11:15.969Z,61.74
2022-12-29T01:14:15.501Z,62.53
2022-12-29T01:17:12.907Z,62.59
2022-12-29T01:20:10.375Z,62.59
2022-12-29T01:23:08.088Z,62.80
2022-12-29T01:26:05.525Z,62.51
2022-12-29T01:29:03.314Z,62.67
2022-12-29T01:32:00.823Z,62.77
2022-12-29T01:34:58.589Z,62.20
2022-12-29T01:37:56.085Z,61.59
2022-12-29T01:40:53.896Z,61.22
2022-12-29T01:43:51.868Z,60.80
2022-12-29T01:46:49.310Z,61.36
2022-12-29T01:49:46.846Z,61.92
2022-12-29T01:52:44.349Z,61.65
2022-12-29T01:55:42.088Z,61.60
2022-12-29T01:58:39.768Z,62.28
2022-12-29T02:01:37.331Z,60.91
2022-12-29T02:04:35.636Z,60.29
2022-12-29T02:07:33.068Z,60.60
2022-12-29T02:10:30.836Z,59.31
2022-12-29T02:13:28.295Z,56.85
2022-12-29T02:16:26.219Z,56.76
2022-12-29T02:19:23.840Z,57.54
2022-12-29T02:22:21.497Z,58.82
2022-12-29T02:25:19.159Z,60.05
2022-12-29T02:28:16.601Z,63.33
2022-12-29T02:31:16.044Z,69.13
2022-12-29T02:34:13.587Z,67.98
2022-12-29T02:37:11.235Z,70.87
2022-12-29T02:40:08.716Z,67.04
2022-12-29T02:43:06.605Z,64.84
2022-12-29T02:46:05.091Z,63.91
2022-12-29T02:49:02.861Z,63.70
2022-12-29T02:52:00.403Z,63.72
2022-12-29T02:54:58.775Z,62.76
2022-12-29T02:57:56.533Z,62.64
2022-12-29T03:00:54.354Z,64.01
2022-12-29T03:03:52.078Z,63.08
2022-12-29T03:06:53.242Z,62.47
2022-12-29T03:09:51.300Z,62.17
2022-12-29T03:13:06.375Z,63.47
2022-12-29T03:16:05.687Z,62.89
2022-12-29T03:19:03.638Z,62.05
2022-12-29T03:22:17.825Z,63.71
2022-12-29T03:25:15.567Z,63.25
2022-12-29T03:28:13.131Z,61.63
2022-12-29T03:31:10.844Z,61.47
2022-12-29T03:34:08.354Z,62.57
2022-12-29T03:37:06.227Z,63.58
2022-12-29T03:40:04.916Z,64.54
2022-12-29T03:43:02.831Z,63.70
2022-12-29T03:46:00.577Z,62.84
2022-12-29T03:48:58.519Z,62.52
2022-12-29T03:51:56.390Z,61.95
2022-12-29T03:54:53.854Z,58.67
2022-12-29T03:57:51.939Z,55.53
2022-12-29T04:00:49.393Z,55.58
2022-12-29T04:03:47.225Z,56.16
2022-12-29T04:06:44.939Z,57.24
2022-12-29T04:09:42.381Z,58.32
2022-12-29T04:12:39.840Z,59.30
2022-12-29T04:15:37.347Z,60.60
2022-12-29T04:18:35.171Z,64.00
2022-12-29T04:21:32.628Z,66.40
2022-12-29T04:24:30.398Z,72.17
2022-12-29T04:27:28.060Z,69.77
2022-12-29T04:30:25.527Z,67.83
2022-12-29T04:33:23.183Z,69.31
2022-12-29T04:36:22.432Z,70.75
2022-12-29T04:39:25.684Z,67.20
2022-12-29T04:42:23.391Z,64.47
2022-12-29T04:45:21.216Z,62.63
2022-12-29T04:48:18.885Z,62.01
2022-12-29T04:51:16.312Z,61.34
2022-12-29T04:54:14.017Z,61.44
2022-12-29T04:57:12.180Z,61.23
2022-12-29T05:00:11.084Z,61.47
2022-12-29T05:03:09.237Z,61.64
2022-12-29T05:06:07.120Z,61.08
2022-12-29T05:09:05.199Z,61.00
2022-12-29T05:12:02.658Z,61.18
2022-12-29T05:15:00.431Z,60.70
2022-12-29T05:17:57.858Z,60.75
2022-12-29T05:20:55.652Z,60.85
2022-12-29T05:23:53.431Z,61.01
2022-12-29T05:26:50.861Z,60.69
2022-12-29T05:29:48.690Z,61.16
2022-12-29T05:32:46.144Z,61.31
2022-12-29T05:35:43.980Z,61.42
2022-12-29T05:38:41.441Z,61.13
2022-12-29T05:41:39.206Z,61.70
2022-12-29T05:44:37.075Z,61.47
2022-12-29T05:47:34.535Z,61.17
2022-12-29T05:50:32.299Z,61.50
2022-12-29T05:53:29.778Z,61.43
2022-12-29T05:56:27.630Z,61.82
2022-12-29T05:59:25.089Z,62.19
2022-12-29T06:02:23.152Z,62.14
2022-12-29T06:05:21.243Z,62.10
2022-12-29T06:08:18.676Z,62.16
2022-12-29T06:11:16.471Z,62.41
2022-12-29T06:14:14.540Z,62.32
2022-12-29T06:17:12.308Z,62.14
2022-12-29T06:20:09.699Z,62.49
2022-12-29T06:23:07.534Z,63.80
2022-12-29T06:26:05.303Z,65.00
2022-12-29T06:29:03.901Z,61.37
2022-12-29T06:32:01.676Z,61.48
2022-12-29T06:34:59.217Z,63.31
2022-12-29T06:37:56.992Z,63.37
2022-12-29T06:40:54.443Z,62.79
2022-12-29T06:43:51.914Z,61.92
2022-12-29T06:46:49.672Z,62.43
2022-12-29T06:49:47.754Z,62.35
2022-12-29T06:52:45.617Z,60.24
2022-12-29T06:55:43.051Z,57.06
2022-12-29T06:58:40.945Z,54.50
2022-12-29T07:01:38.922Z,54.54
2022-12-29T07:04:36.472Z,55.65
2022-12-29T07:07:34.403Z,56.62
2022-12-29T07:10:31.846Z,57.93
2022-12-29T07:13:30.297Z,59.27
2022-12-29T07:16:27.958Z,60.24
2022-12-29T07:19:25.521Z,65.29
2022-12-29T07:22:23.286Z,68.08
2022-12-29T07:25:20.747Z,68.85
2022-12-29T07:28:18.616Z,67.97
2022-12-29T07:31:16.083Z,66.94
2022-12-29T07:34:13.538Z,65.64
2022-12-29T07:37:11.320Z,66.64
2022-12-29T07:40:08.874Z,65.43
2022-12-29T07:43:06.544Z,66.71
2022-12-29T07:46:04.051Z,66.25
2022-12-29T07:49:01.860Z,64.70
2022-12-29T07:51:59.566Z,65.27
2022-12-29T07:54:57.042Z,66.55
2022-12-29T07:57:54.501Z,66.50
2022-12-29T08:00:51.930Z,66.77
2022-12-29T08:03:55.414Z,66.30
2022-12-29T08:06:54.627Z,65.93
2022-12-29T08:09:52.382Z,65.85
2022-12-29T08:12:50.129Z,66.14
2022-12-29T08:15:47.621Z,65.75
2022-12-29T08:18:45.784Z,67.83
2022-12-29T08:21:43.199Z,69.55
2022-12-29T08:24:40.994Z,69.48
2022-12-29T08:27:38.632Z,68.02
2022-12-29T08:30:36.058Z,67.87
2022-12-29T08:33:33.679Z,66.69
2022-12-29T08:36:31.503Z,66.03
2022-12-29T08:39:29.964Z,65.64
2022-12-29T08:42:32.202Z,66.33
2022-12-29T08:45:29.760Z,66.19
2022-12-29T08:48:27.445Z,65.93
2022-12-29T08:51:25.354Z,66.11
2022-12-29T08:54:23.182Z,65.56
2022-12-29T08:57:21.340Z,65.93
2022-12-29T09:00:19.009Z,66.78
2022-12-29T09:03:25.869Z,67.38
2022-12-29T09:06:39.997Z,66.55
2022-12-29T09:09:38.347Z,67.21
2022-12-29T09:12:36.716Z,66.69
2022-12-29T09:15:34.681Z,65.14
2022-12-29T09:18:32.340Z,64.34
2022-12-29T09:21:29.786Z,65.10
2022-12-29T09:24:27.365Z,66.34
2022-12-29T09:27:24.844Z,66.13
2022-12-29T09:30:22.493Z,66.53
2022-12-29T09:33:19.931Z,67.51
2022-12-29T09:36:17.646Z,65.68
2022-12-29T09:39:15.070Z,67.19
2022-12-29T09:42:12.758Z,65.57
2022-12-29T09:45:10.199Z,64.20
2022-12-29T09:48:09.884Z,63.90
2022-12-29T09:51:07.771Z,63.43
2022-12-29T09:54:05.245Z,64.01
2022-12-29T09:57:03.012Z,63.37
2022-12-29T10:00:00.425Z,63.90
2022-12-29T10:02:58.135Z,64.03
2022-12-29T10:05:55.725Z,64.04
2022-12-29T10:08:53.329Z,64.27
2022-12-29T10:11:51.134Z,69.32
2022-12-29T10:14:48.565Z,72.26
2022-12-29T10:17:46.640Z,68.58
2022-12-29T10:20:44.064Z,66.41
2022-12-29T10:23:42.882Z,63.73
2022-12-29T10:26:40.293Z,62.36
2022-12-29T10:29:38.048Z,61.70
2022-12-29T10:32:35.736Z,66.33
2022-12-29T10:35:33.195Z,63.91
2022-12-29T10:38:30.811Z,57.24
2022-12-29T10:41:28.328Z,54.20
2022-12-29T10:44:26.076Z,54.78
2022-12-29T10:47:23.525Z,56.16
2022-12-29T10:50:21.284Z,58.67
2022-12-29T10:53:18.933Z,66.77
2022-12-29T10:56:16.369Z,73.83
2022-12-29T10:59:14.488Z,68.79
2022-12-29T11:02:12.010Z,64.60
2022-12-29T11:05:10.552Z,63.40
2022-12-29T11:08:07.987Z,61.84
2022-12-29T11:11:05.828Z,61.84
2022-12-29T11:14:03.267Z,64.37
2022-12-29T11:17:01.319Z,66.30
2022-12-29T11:19:58.769Z,64.00
2022-12-29T11:22:56.614Z,62.43
2022-12-29T11:25:54.039Z,63.39
2022-12-29T11:28:51.825Z,60.55
2022-12-29T11:31:49.303Z,56.87
2022-12-29T11:34:47.188Z,55.17
2022-12-29T11:37:44.645Z,56.53
2022-12-29T11:40:42.506Z,57.85
2022-12-29T11:43:39.949Z,59.35
2022-12-29T11:46:37.885Z,65.98
2022-12-29T11:49:35.382Z,72.53
2022-12-29T11:52:34.773Z,70.74
2022-12-29T11:55:32.214Z,68.21
2022-12-29T11:58:30.071Z,66.11
2022-12-29T12:01:27.616Z,64.90
2022-12-29T12:04:25.494Z,64.57
2022-12-29T12:07:22.988Z,62.21
2022-12-29T12:10:20.928Z,63.64
2022-12-29T12:13:18.869Z,64.82
2022-12-29T12:16:16.766Z,62.70
2022-12-29T12:19:14.722Z,60.79
2022-12-29T12:22:12.140Z,59.62
2022-12-29T12:25:10.077Z,55.65
2022-12-29T12:28:08.038Z,54.61
2022-12-29T12:31:07.170Z,55.80
2022-12-29T12:34:04.669Z,57.43
2022-12-29T12:37:02.447Z,58.97
2022-12-29T12:39:59.877Z,63.11
2022-12-29T12:42:57.822Z,73.20
2022-12-29T12:45:55.326Z,72.50
2022-12-29T12:48:53.187Z,68.44
2022-12-29T12:51:50.661Z,65.28
2022-12-29T12:54:48.474Z,63.53
2022-12-29T12:57:46.414Z,63.57
2022-12-29T13:00:43.850Z,61.08
2022-12-29T13:03:41.861Z,55.28
2022-12-29T13:06:39.340Z,52.37
2022-12-29T13:09:37.198Z,53.29
2022-12-29T13:12:34.623Z,54.66
2022-12-29T13:15:32.609Z,56.10
2022-12-29T13:18:30.254Z,58.06
2022-12-29T13:21:28.106Z,59.69
2022-12-29T13:24:25.581Z,65.36
2022-12-29T13:27:23.464Z,69.57
2022-12-29T13:30:20.921Z,69.80
2022-12-29T13:33:21.631Z,68.50
2022-12-29T13:36:19.821Z,67.27
2022-12-29T13:39:20.872Z,62.40
2022-12-29T13:42:19.220Z,61.49
2022-12-29T13:45:16.648Z,61.38
2022-12-29T13:48:14.376Z,61.94
2022-12-29T13:51:12.560Z,60.48
2022-12-29T13:54:10.065Z,59.64
2022-12-29T13:57:08.811Z,58.89
2022-12-29T14:00:06.355Z,55.82
2022-12-29T14:03:04.382Z,55.73
2022-12-29T14:06:01.998Z,57.15
2022-12-29T14:08:59.927Z,58.71
2022-12-29T14:11:57.345Z,60.12
2022-12-29T14:14:55.195Z,65.92
2022-12-29T14:17:53.069Z,68.09
2022-12-29T14:20:50.522Z,66.79
2022-12-29T14:23:48.303Z,66.51
2022-12-29T14:26:45.754Z,65.44
2022-12-29T14:29:43.633Z,65.54
2022-12-29T14:32:41.140Z,66.66
2022-12-29T14:35:39.184Z,65.63
2022-12-29T14:38:36.647Z,65.20
2022-12-29T14:41:34.435Z,64.66
2022-12-29T14:44:31.886Z,64.05
2022-12-29T14:47:29.716Z,62.78
2022-12-29T14:50:27.156Z,64.98
2022-12-29T14:53:24.604Z,66.47
2022-12-29T14:56:22.381Z,62.71
2022-12-29T14:59:20.291Z,63.45
2022-12-29T15:02:17.801Z,61.53
2022-12-29T15:05:15.918Z,61.23
2022-12-29T15:08:13.375Z,61.16
2022-12-29T15:11:11.334Z,61.05
2022-12-29T15:14:08.761Z,57.53
2022-12-29T15:17:06.670Z,54.23
2022-12-29T15:20:04.146Z,54.66
2022-12-29T15:23:02.107Z,55.96
2022-12-29T15:25:59.548Z,57.16
2022-12-29T15:28:57.567Z,58.52
2022-12-29T15:31:55.008Z,59.64
2022-12-29T15:34:53.213Z,63.49
2022-12-29T15:37:50.679Z,71.39
2022-12-29T15:40:48.704Z,73.45
2022-12-29T15:43:47.403Z,68.76
2022-12-29T15:46:45.496Z,67.94
2022-12-29T15:49:42.921Z,64.96
2022-12-29T15:52:40.817Z,62.45
2022-12-29T15:55:38.297Z,56.46
2022-12-29T15:58:36.061Z,52.17
2022-12-29T16:01:33.665Z,52.45
2022-12-29T16:04:38.982Z,53.58
2022-12-29T16:07:45.762Z,54.74
2022-12-29T16:10:43.633Z,56.41
2022-12-29T16:13:41.040Z,57.63
2022-12-29T16:16:39.012Z,59.00
2022-12-29T16:19:36.500Z,60.52
2022-12-29T16:22:34.244Z,64.36
2022-12-29T16:25:32.545Z,76.09
2022-12-29T16:28:30.481Z,72.18
2022-12-29T16:31:27.980Z,67.30
2022-12-29T16:34:25.815Z,65.64
2022-12-29T16:37:23.272Z,64.34
2022-12-29T16:40:21.270Z,63.44
2022-12-29T16:43:18.678Z,63.78
2022-12-29T16:46:16.520Z,63.09
2022-12-29T16:49:14.020Z,62.18
2022-12-29T16:52:11.913Z,57.41
2022-12-29T16:55:09.336Z,53.69
2022-12-29T16:58:07.349Z,53.81
2022-12-29T17:01:04.847Z,54.99
2022-12-29T17:04:02.721Z,56.34
2022-12-29T17:07:00.664Z,57.58
2022-12-29T17:09:58.512Z,58.87
2022-12-29T17:12:55.930Z,60.30
2022-12-29T17:15:53.904Z,63.42
2022-12-29T17:18:51.359Z,67.68
2022-12-29T17:21:49.232Z,71.16
2022-12-29T17:24:47.263Z,70.66
2022-12-29T17:27:44.770Z,69.26
2022-12-29T17:30:43.809Z,66.93
2022-12-29T17:33:42.879Z,64.34
2022-12-29T17:36:40.816Z,63.72
2022-12-29T17:39:38.248Z,64.63
2022-12-29T17:42:36.277Z,65.37
2022-12-29T17:45:33.732Z,63.01
2022-12-29T17:48:31.537Z,61.32
2022-12-29T17:51:29.520Z,61.96
2022-12-29T17:54:27.008Z,62.12
2022-12-29T17:57:24.790Z,56.58
2022-12-29T18:00:22.462Z,53.33
2022-12-29T18:03:20.530Z,53.82
2022-12-29T18:06:18.539Z,55.10
2022-12-29T18:09:18.745Z,56.34
2022-12-29T18:12:16.170Z,57.96
2022-12-29T18:15:13.715Z,59.23
2022-12-29T18:18:12.071Z,60.32
2022-12-29T18:21:09.933Z,66.62
2022-12-29T18:24:07.521Z,74.70
2022-12-29T18:27:05.758Z,73.29
2022-12-29T18:30:03.529Z,70.27
2022-12-29T18:33:01.472Z,68.12
2022-12-29T18:36:00.188Z,65.92
2022-12-29T18:39:00.589Z,62.70
2022-12-29T18:41:58.154Z,62.29
2022-12-29T18:44:56.081Z,56.58
2022-12-29T18:47:53.751Z,52.50
2022-12-29T18:50:52.548Z,52.82
2022-12-29T18:53:49.986Z,54.05
2022-12-29T18:56:47.877Z,55.60
2022-12-29T18:59:45.744Z,57.08
2022-12-29T19:02:44.335Z,58.39
2022-12-29T19:05:42.185Z,59.68
2022-12-29T19:08:39.669Z,65.09
2022-12-29T19:11:37.808Z,73.24
2022-12-29T19:14:35.278Z,68.97
2022-12-29T19:17:33.362Z,66.87
2022-12-29T19:20:31.128Z,64.57
2022-12-29T19:23:28.984Z,64.61
2022-12-29T19:26:26.529Z,65.47
2022-12-29T19:29:25.604Z,65.35
2022-12-29T19:32:23.106Z,63.89
2022-12-29T19:35:21.542Z,63.77
2022-12-29T19:38:19.014Z,62.39
2022-12-29T19:41:17.052Z,56.85
2022-12-29T19:44:14.507Z,52.43
2022-12-29T19:47:14.721Z,52.67
2022-12-29T19:50:12.225Z,54.07
2022-12-29T19:53:10.060Z,55.41
2022-12-29T19:56:07.958Z,56.88
2022-12-29T19:59:05.958Z,58.08
2022-12-29T20:02:05.809Z,59.34
2022-12-29T20:05:03.891Z,61.90
2022-12-29T20:08:02.309Z,63.48
2022-12-29T20:11:00.341Z,64.28
2022-12-29T20:13:57.794Z,75.70
2022-12-29T20:17:10.885Z,76.65
2022-12-29T20:20:09.308Z,73.00
2022-12-29T20:23:07.615Z,69.14
2022-12-29T20:26:05.699Z,66.10
2022-12-29T20:29:03.566Z,63.34
2022-12-29T20:32:01.149Z,56.54
2022-12-29T20:34:58.615Z,51.70
2022-12-29T20:37:57.060Z,51.92
2022-12-29T20:40:54.521Z,53.12
2022-12-29T20:43:53.813Z,54.45
2022-12-29T20:46:51.737Z,55.88
2022-12-29T20:49:49.434Z,57.19
2022-12-29T20:52:48.001Z,58.51
2022-12-29T20:55:45.927Z,59.79
2022-12-29T20:59:17.190Z,64.55
2022-12-29T21:02:01.385Z,68.54
2022-12-29T21:05:23.382Z,66.38
2022-12-29T21:08:17.035Z,67.06
2022-12-29T21:11:14.904Z,71.75
2022-12-29T21:14:12.869Z,68.22
2022-12-29T21:17:10.399Z,64.51
2022-12-29T21:20:08.264Z,62.87
2022-12-29T21:23:06.325Z,61.57
2022-12-29T21:26:04.500Z,56.76
2022-12-29T21:29:02.001Z,53.54
2022-12-29T21:32:06.708Z,53.74
2022-12-29T21:35:04.882Z,54.90
2022-12-29T21:38:02.346Z,56.17
2022-12-29T21:41:00.561Z,57.35
2022-12-29T21:44:27.327Z,58.73
2022-12-29T21:47:25.347Z,59.29
2022-12-29T21:50:22.831Z,64.35
2022-12-29T21:53:20.685Z,68.44
2022-12-29T21:56:18.562Z,70.23
2022-12-29T21:59:33.835Z,67.87
2022-12-29T22:02:49.840Z,65.85
2022-12-29T22:06:05.528Z,66.00
2022-12-29T22:09:20.542Z,68.39
2022-12-29T22:12:36.584Z,65.45
2022-12-29T22:15:34.109Z,67.35
2022-12-29T22:18:32.340Z,63.74
2022-12-29T22:21:29.772Z,62.03
2022-12-29T22:24:27.665Z,56.46
2022-12-29T22:27:25.104Z,52.23
2022-12-29T22:30:22.972Z,52.53
2022-12-29T22:33:20.435Z,53.89
2022-12-29T22:36:18.288Z,55.07
2022-12-29T22:39:16.896Z,56.34
2022-12-29T22:42:14.338Z,57.75
2022-12-29T22:45:12.236Z,59.02
2022-12-29T22:48:10.298Z,60.27
2022-12-29T22:51:07.736Z,66.53
2022-12-29T22:54:05.616Z,72.83
2022-12-29T22:57:03.083Z,71.77
2022-12-29T23:00:00.859Z,67.18
2022-12-29T23:02:59.068Z,64.56
2022-12-29T23:05:57.339Z,63.37
2022-12-29T23:08:55.896Z,62.37
2022-12-29T23:11:53.459Z,61.70
2022-12-29T23:14:51.265Z,61.42
2022-12-29T23:17:48.683Z,62.38
2022-12-29T23:20:46.500Z,61.99
2022-12-29T23:23:56.243Z,60.77
2022-12-29T23:26:54.126Z,57.19
2022-12-29T23:29:51.597Z,54.68
2022-12-29T23:32:49.417Z,54.92
2022-12-29T23:35:46.842Z,56.03
2022-12-29T23:38:44.771Z,57.44
2022-12-29T23:41:42.257Z,58.64
2022-12-29T23:44:40.158Z,60.04
2022-12-29T23:47:37.594Z,65.36
2022-12-29T23:50:35.057Z,69.02
2022-12-29T23:53:32.514Z,67.94
2022-12-29T23:56:30.457Z,69.87
2022-12-29T23:59:27.910Z,70.23
